Time;durP1;ratioP1;P1;durP2;ratioP2;P2;SDS_P1;SDS_P2;PMS_P1;PMS_P2;Temp;Humidity;BMP_temperature;BMP_pressure;BME280_temperature;BME280_humidity;BME280_pressure;Samples;Min_cycle;Max_cycle;Signal;HPM_P1;HPM_P2
2022/06/10 00:02:00;;;;;;;16.40;3.92;;;19.90;99.90;;;;;;5029046;28;20060;-76
2022/06/10 00:04:26;;;;;;;16.92;3.65;;;19.90;99.90;;;;;;5025747;28;20041;-75
2022/06/10 00:06:52;;;;;;;12.40;3.78;;;19.90;99.90;;;;;;5021882;28;20037;-76
2022/06/10 00:09:19;;;;;;;17.95;3.30;;;19.90;99.90;;;;;;5022078;28;20441;-77
2022/06/10 00:11:45;;;;;;;14.10;3.53;;;19.90;99.90;;;;;;5041750;28;20053;-76
2022/06/10 00:14:11;;;;;;;16.30;3.00;;;19.90;99.90;;;;;;5025433;28;20354;-76
2022/06/10 00:16:37;;;;;;;13.82;3.90;;;19.80;99.90;;;;;;5024378;28;20048;-76
2022/06/10 00:19:03;;;;;;;13.00;3.63;;;19.80;99.90;;;;;;5037298;28;20038;-76
2022/06/10 00:21:29;;;;;;;15.82;3.53;;;19.80;99.90;;;;;;5024056;28;20030;-75
2022/06/10 00:23:55;;;;;;;14.77;3.20;;;19.80;99.90;;;;;;5038266;28;20136;-76
2022/06/10 00:26:21;;;;;;;14.02;3.50;;;19.70;99.90;;;;;;5030091;28;20443;-76
2022/06/10 00:28:48;;;;;;;14.32;3.55;;;19.70;99.90;;;;;;5028353;28;20038;-75
2022/06/10 00:31:16;;;;;;;17.10;3.45;;;19.70;99.90;;;;;;5023011;28;20032;-76
2022/06/10 00:33:42;;;;;;;12.20;3.60;;;19.70;99.90;;;;;;5038305;28;20039;-76
2022/06/10 00:36:09;;;;;;;14.27;3.00;;;19.70;99.90;;;;;;5021917;28;20069;-75
2022/06/10 00:38:36;;;;;;;14.27;3.25;;;19.70;99.90;;;;;;5022517;28;20061;-75
2022/06/10 00:41:03;;;;;;;17.17;4.07;;;19.70;99.90;;;;;;5006428;28;20607;-75
2022/06/10 00:43:32;;;;;;;13.50;3.25;;;19.70;99.90;;;;;;5026646;28;20473;-76
2022/06/10 00:46:11;;;;;;;19.67;4.60;;;19.70;99.90;;;;;;5023575;28;20060;-75
2022/06/10 00:49:13;;;;;;;13.73;3.67;;;19.70;99.90;;;;;;5024808;28;20037;-75
2022/06/10 00:51:50;;;;;;;14.45;3.30;;;19.60;99.90;;;;;;5044101;28;20041;-76
2022/06/10 00:54:20;;;;;;;11.95;4.25;;;19.60;99.90;;;;;;5022138;28;20963;-76
2022/06/10 00:56:59;;;;;;;12.48;3.72;;;19.60;99.90;;;;;;5024076;28;20044;-75
2022/06/10 00:59:29;;;;;;;14.40;4.07;;;19.60;99.90;;;;;;5041714;28;20497;-77
2022/06/10 01:02:08;;;;;;;9.90;4.07;;;19.50;99.90;;;;;;5023721;28;20037;-76
2022/06/10 01:04:36;;;;;;;19.23;4.60;;;19.50;99.90;;;;;;5026201;28;20042;-77
2022/06/10 01:07:03;;;;;;;15.43;4.50;;;19.50;99.90;;;;;;5042800;28;20033;-76
2022/06/10 01:09:31;;;;;;;19.15;4.18;;;19.50;99.90;;;;;;5036046;28;20046;-77
2022/06/10 01:12:29;;;;;;;18.52;4.15;;;19.60;99.90;;;;;;5044745;28;20052;-76
2022/06/10 01:15:09;;;;;;;15.45;4.82;;;19.60;99.90;;;;;;5021739;28;20512;-76
2022/06/10 01:17:58;;;;;;;18.90;4.82;;;19.70;99.90;;;;;;5023032;28;20034;-75
2022/06/10 01:20:36;;;;;;;13.85;4.28;;;19.70;99.90;;;;;;5025052;28;20056;-77
2022/06/10 01:23:35;;;;;;;22.05;5.95;;;19.60;99.90;;;;;;5040307;28;20038;-75
2022/06/10 01:26:20;;;;;;;19.38;5.72;;;19.60;99.90;;;;;;5045975;28;20065;-76
2022/06/10 01:29:05;;;;;;;19.17;5.07;;;19.60;99.90;;;;;;5035879;28;20103;-76
2022/06/10 01:31:57;;;;;;;18.42;5.50;;;19.50;99.90;;;;;;5022144;28;20021;-76
2022/06/10 01:34:29;;;;;;;18.95;5.65;;;19.50;99.90;;;;;;5026557;28;20125;-76
2022/06/10 01:37:07;;;;;;;18.38;5.95;;;19.50;99.90;;;;;;5021723;28;20033;-76
2022/06/10 01:40:03;;;;;;;18.88;5.85;;;19.50;99.90;;;;;;5028403;28;20034;-76
2022/06/10 01:42:35;;;;;;;19.52;5.82;;;19.40;99.90;;;;;;5027118;28;20080;-75
2022/06/10 01:45:34;;;;;;;22.27;6.68;;;19.40;99.90;;;;;;5037765;28;20131;-75
2022/06/10 01:48:14;;;;;;;13.90;6.55;;;19.40;99.90;;;;;;5008303;28;20033;-76
2022/06/10 01:51:29;;;;;;;15.10;6.00;;;19.40;99.90;;;;;;5037999;28;20555;-76
2022/06/10 01:54:00;;;;;;;16.90;6.63;;;19.40;99.90;;;;;;5007041;28;20037;-76
2022/06/10 01:56:34;;;;;;;16.13;6.10;;;19.40;99.90;;;;;;5032487;28;20066;-76
2022/06/10 01:59:22;;;;;;;22.60;6.82;;;19.40;99.90;;;;;;5023700;28;20026;-77
2022/06/10 02:01:56;;;;;;;14.48;6.80;;;19.40;99.90;;;;;;5034426;28;20121;-74
2022/06/10 02:04:28;;;;;;;21.92;6.70;;;19.30;99.90;;;;;;5034366;28;20041;-73
2022/06/10 02:07:10;;;;;;;17.95;6.22;;;19.30;99.90;;;;;;5020885;28;20037;-73
2022/06/10 02:10:15;;;;;;;17.58;6.30;;;19.30;99.90;;;;;;5034904;28;20512;-73
2022/06/10 02:12:47;;;;;;;25.08;6.90;;;19.30;99.90;;;;;;5013013;28;20500;-73
2022/06/10 02:15:24;;;;;;;16.23;7.30;;;19.30;99.90;;;;;;5021535;28;20041;-73
2022/06/10 02:18:09;;;;;;;18.48;6.72;;;19.30;99.90;;;;;;5017995;28;20033;-73
2022/06/10 02:20:40;;;;;;;24.55;6.63;;;19.30;99.90;;;;;;4996873;28;20040;-73
2022/06/10 02:23:08;;;;;;;19.15;7.40;;;19.30;99.90;;;;;;5000614;28;20042;-72
2022/06/10 02:25:44;;;;;;;19.25;6.40;;;19.40;99.90;;;;;;4999942;28;20107;-73
2022/06/10 02:28:15;;;;;;;19.60;6.95;;;19.50;99.90;;;;;;5045961;28;20044;-72
2022/06/10 02:31:00;;;;;;;16.65;6.28;;;19.40;99.90;;;;;;5021656;28;20192;-72
2022/06/10 02:33:26;;;;;;;18.52;6.60;;;19.40;99.90;;;;;;5015590;28;20049;-72
2022/06/10 02:36:04;;;;;;;13.63;6.32;;;19.40;99.90;;;;;;5002114;28;20034;-73
2022/06/10 02:38:51;;;;;;;17.80;6.70;;;19.40;99.90;;;;;;5007261;28;20068;-73
2022/06/10 02:41:31;;;;;;;16.77;6.65;;;19.40;99.90;;;;;;5001634;28;20034;-73
2022/06/10 02:44:09;;;;;;;20.88;7.10;;;19.40;99.90;;;;;;5054467;28;20084;-72
2022/06/10 02:46:54;;;;;;;23.65;6.93;;;19.40;99.90;;;;;;4998614;28;20034;-72
2022/06/10 02:49:21;;;;;;;16.75;6.15;;;19.40;99.90;;;;;;4999560;28;20076;-72
2022/06/10 02:51:49;;;;;;;22.77;6.88;;;19.50;99.90;;;;;;5045161;28;20025;-73
2022/06/10 02:54:27;;;;;;;16.42;6.25;;;19.40;99.90;;;;;;5023788;28;20120;-73
2022/06/10 02:56:54;;;;;;;23.13;6.93;;;19.40;99.90;;;;;;5022044;28;20065;-72
2022/06/10 03:02:24;;;;;;;20.95;6.45;;;19.40;99.90;;;;;;5025540;28;20053;-72
2022/06/10 03:05:12;;;;;;;19.42;6.20;;;19.40;99.90;;;;;;5006580;28;20042;-73
2022/06/10 03:07:57;;;;;;;24.20;6.30;;;19.40;99.90;;;;;;5000896;28;20048;-72
2022/06/10 03:11:02;;;;;;;16.38;6.30;;;19.40;99.90;;;;;;5013149;28;20100;-73
2022/06/10 03:13:30;;;;;;;19.80;6.13;;;19.40;99.90;;;;;;5007011;28;20472;-72
2022/06/10 03:16:19;;;;;;;19.50;5.97;;;19.40;99.90;;;;;;5048466;28;20047;-72
2022/06/10 03:19:04;;;;;;;18.02;6.72;;;19.40;99.90;;;;;;5052316;28;20479;-73
2022/06/10 03:21:40;;;;;;;18.77;6.03;;;19.40;99.90;;;;;;5048009;28;20041;-73
2022/06/10 03:24:12;;;;;;;15.63;5.65;;;19.40;99.90;;;;;;5022578;28;20758;-74
2022/06/10 03:26:59;;;;;;;21.98;6.72;;;19.40;99.90;;;;;;5052630;28;20109;-73
2022/06/10 03:29:53;;;;;;;17.38;5.40;;;19.30;99.90;;;;;;5039500;28;20041;-73
2022/06/10 03:32:42;;;;;;;21.75;6.15;;;19.40;99.90;;;;;;5036543;28;20038;-73
2022/06/10 03:35:15;;;;;;;16.70;6.15;;;19.40;99.90;;;;;;5030966;28;20077;-72
2022/06/10 03:37:42;;;;;;;17.90;6.70;;;19.40;99.90;;;;;;5025055;28;20037;-74
2022/06/10 03:40:18;;;;;;;16.30;5.70;;;19.40;99.90;;;;;;5023422;28;20037;-73
2022/06/10 03:42:52;;;;;;;19.70;5.47;;;19.40;99.90;;;;;;5025376;28;20457;-73
2022/06/10 03:45:23;;;;;;;16.02;5.68;;;19.30;99.90;;;;;;5022480;28;20103;-73
2022/06/10 03:47:49;;;;;;;21.73;7.50;;;19.30;99.90;;;;;;5029281;28;20095;-73
2022/06/10 03:50:21;;;;;;;18.58;6.10;;;19.40;99.90;;;;;;5031859;28;20037;-73
2022/06/10 03:52:47;;;;;;;16.02;6.35;;;19.30;99.90;;;;;;5051936;28;20034;-73
2022/06/10 03:55:18;;;;;;;20.30;6.25;;;19.40;99.90;;;;;;5038537;28;20099;-72
2022/06/10 03:57:46;;;;;;;20.92;6.57;;;19.40;99.90;;;;;;5020928;28;20038;-73
2022/06/10 04:00:20;;;;;;;22.30;6.60;;;19.40;99.90;;;;;;5030826;28;20443;-73
2022/06/10 04:02:47;;;;;;;21.02;6.85;;;19.40;99.90;;;;;;5021591;28;20071;-73
2022/06/10 04:05:13;;;;;;;14.80;7.07;;;19.40;99.90;;;;;;5022288;28;20453;-73
2022/06/10 04:07:41;;;;;;;19.58;6.32;;;19.40;99.90;;;;;;5027972;28;20037;-72
2022/06/10 04:10:09;;;;;;;21.55;6.97;;;19.40;99.90;;;;;;5035594;28;20099;-74
2022/06/10 04:12:36;;;;;;;19.75;6.82;;;19.40;99.90;;;;;;5019694;28;20041;-73
2022/06/10 04:15:05;;;;;;;15.73;6.60;;;19.40;99.90;;;;;;5035398;28;20037;-72
2022/06/10 04:17:31;;;;;;;22.95;6.55;;;19.40;99.90;;;;;;5042365;28;20037;-73
2022/06/10 04:19:59;;;;;;;21.13;7.28;;;19.40;99.90;;;;;;5039273;28;20065;-73
2022/06/10 04:22:26;;;;;;;19.42;7.60;;;19.40;99.90;;;;;;5038282;28;20393;-72
2022/06/10 04:24:52;;;;;;;18.00;7.70;;;19.40;99.90;;;;;;5021416;28;20552;-73
2022/06/10 04:27:18;;;;;;;19.27;7.20;;;19.40;99.90;;;;;;5033802;28;20037;-73
2022/06/10 04:29:44;;;;;;;15.95;6.88;;;19.30;99.90;;;;;;5025977;28;20040;-73
2022/06/10 04:32:10;;;;;;;19.27;6.70;;;19.40;99.90;;;;;;5021719;28;20041;-74
2022/06/10 04:34:36;;;;;;;19.58;7.13;;;19.50;99.90;;;;;;5023038;28;20044;-72
2022/06/10 04:37:04;;;;;;;20.48;6.85;;;19.50;99.90;;;;;;5027594;28;20379;-74
2022/06/10 04:39:29;;;;;;;17.55;7.40;;;19.40;99.90;;;;;;5014836;28;20037;-72
2022/06/10 04:41:56;;;;;;;18.23;7.45;;;19.40;99.90;;;;;;5020912;28;20048;-73
2022/06/10 04:44:23;;;;;;;18.17;7.03;;;19.40;99.90;;;;;;5038350;28;20051;-72
2022/06/10 04:46:49;;;;;;;17.75;7.60;;;19.50;99.90;;;;;;5018947;28;20125;-73
2022/06/10 04:49:16;;;;;;;15.82;7.15;;;19.60;99.90;;;;;;5031760;28;20128;-74
2022/06/10 04:51:42;;;;;;;19.25;7.32;;;19.60;99.90;;;;;;5025519;28;20495;-74
2022/06/10 04:54:10;;;;;;;15.13;6.47;;;19.60;99.90;;;;;;5053222;28;20034;-72
2022/06/10 04:56:38;;;;;;;19.42;6.70;;;19.60;99.90;;;;;;5036469;28;20473;-73
2022/06/10 04:59:04;;;;;;;13.77;6.63;;;19.60;99.90;;;;;;5037872;28;20469;-73
2022/06/10 05:01:30;;;;;;;17.88;7.43;;;19.60;99.90;;;;;;5021534;28;20022;-73
2022/06/10 05:03:55;;;;;;;15.43;7.45;;;19.60;99.90;;;;;;5040996;28;20049;-74
2022/06/10 05:06:22;;;;;;;18.35;7.55;;;19.60;99.90;;;;;;5020192;28;20566;-73
2022/06/10 05:08:49;;;;;;;17.92;7.05;;;19.60;99.90;;;;;;5022331;28;20434;-73
2022/06/10 05:11:16;;;;;;;17.35;6.80;;;19.70;99.90;;;;;;5056797;28;20034;-73
2022/06/10 05:13:42;;;;;;;19.52;7.47;;;19.80;99.90;;;;;;5021613;28;20778;-73
2022/06/10 05:16:08;;;;;;;18.35;7.18;;;19.80;99.90;;;;;;5034722;28;20156;-73
2022/06/10 05:18:35;;;;;;;15.45;6.90;;;19.80;99.90;;;;;;5023534;28;20810;-72
2022/06/10 05:21:01;;;;;;;18.10;7.60;;;19.90;99.90;;;;;;5039706;28;20498;-74
2022/06/10 05:23:28;;;;;;;15.60;7.20;;;19.90;99.90;;;;;;5023047;28;20041;-74
2022/06/10 05:25:54;;;;;;;18.48;7.28;;;20.00;99.90;;;;;;5020037;28;20034;-73
2022/06/10 05:28:22;;;;;;;15.57;6.78;;;20.00;99.90;;;;;;5023941;28;20495;-73
2022/06/10 05:30:49;;;;;;;17.30;7.63;;;20.10;99.90;;;;;;5024274;28;20095;-73
2022/06/10 05:33:16;;;;;;;21.58;7.45;;;20.10;99.90;;;;;;5035925;28;20438;-74
2022/06/10 05:35:45;;;;;;;18.33;7.70;;;20.10;99.90;;;;;;5022148;28;20939;-73
2022/06/10 05:38:14;;;;;;;17.33;6.70;;;20.20;99.90;;;;;;5023835;28;20041;-73
2022/06/10 05:40:41;;;;;;;16.55;6.68;;;20.30;99.90;;;;;;5017847;28;20073;-73
2022/06/10 05:43:07;;;;;;;17.00;7.35;;;20.30;99.90;;;;;;5024785;28;20153;-74
2022/06/10 05:45:33;;;;;;;18.33;7.35;;;20.30;99.90;;;;;;5035340;28;20041;-74
2022/06/10 05:48:01;;;;;;;20.00;6.72;;;20.40;99.90;;;;;;5020556;28;20123;-72
2022/06/10 05:50:37;;;;;;;20.55;7.05;;;20.50;99.90;;;;;;5051369;28;20049;-73
2022/06/10 05:53:07;;;;;;;21.48;7.35;;;20.50;99.90;;;;;;5034280;28;20094;-73
2022/06/10 05:55:35;;;;;;;22.25;6.63;;;20.60;99.90;;;;;;5032373;28;20112;-73
2022/06/10 05:58:01;;;;;;;16.02;7.32;;;20.60;99.90;;;;;;5022789;28;20037;-74
2022/06/10 06:00:32;;;;;;;18.42;6.80;;;20.70;99.90;;;;;;5025452;28;20034;-74
2022/06/10 06:02:59;;;;;;;19.17;8.32;;;20.70;99.90;;;;;;5022347;28;20056;-73
2022/06/10 06:05:26;;;;;;;17.25;6.68;;;20.70;99.90;;;;;;5035046;28;20046;-76
2022/06/10 06:07:53;;;;;;;14.18;6.85;;;20.80;99.90;;;;;;5033753;28;20040;-74
2022/06/10 06:10:22;;;;;;;20.92;6.85;;;20.80;99.90;;;;;;5031092;28;20042;-73
2022/06/10 06:12:51;;;;;;;18.27;6.63;;;20.90;99.90;;;;;;5053944;28;20516;-73
2022/06/10 06:15:18;;;;;;;17.38;7.38;;;20.90;99.90;;;;;;5024530;28;20048;-74
2022/06/10 06:17:44;;;;;;;17.55;6.70;;;20.90;99.90;;;;;;5038672;28;20456;-75
2022/06/10 06:20:15;;;;;;;21.15;7.20;;;21.00;99.90;;;;;;5017967;28;20042;-74
2022/06/10 06:22:41;;;;;;;17.88;6.35;;;21.10;99.90;;;;;;5053689;28;20063;-75
2022/06/10 06:25:09;;;;;;;18.50;6.68;;;21.10;99.90;;;;;;5021753;28;20140;-75
2022/06/10 06:27:35;;;;;;;14.75;6.47;;;21.10;99.90;;;;;;5022406;28;20393;-74
2022/06/10 06:30:01;;;;;;;17.75;6.10;;;21.20;99.90;;;;;;5018333;28;20121;-73
2022/06/10 06:32:28;;;;;;;14.27;5.93;;;21.30;99.90;;;;;;5019332;28;20041;-74
2022/06/10 06:34:54;;;;;;;15.82;5.90;;;21.30;99.90;;;;;;5038203;28;20034;-75
2022/06/10 06:37:20;;;;;;;13.85;6.18;;;21.40;99.90;;;;;;5033903;28;20033;-74
2022/06/10 06:39:46;;;;;;;13.90;6.20;;;21.40;99.90;;;;;;5022933;28;20033;-75
2022/06/10 06:42:12;;;;;;;16.50;5.93;;;21.50;99.90;;;;;;5031598;28;20060;-76
2022/06/10 06:44:40;;;;;;;18.25;5.80;;;21.60;99.90;;;;;;5026619;28;20049;-73
2022/06/10 06:47:11;;;;;;;16.08;5.60;;;21.60;99.90;;;;;;5020933;28;20402;-75
2022/06/10 06:49:37;;;;;;;17.63;5.30;;;21.60;99.90;;;;;;5055804;28;20068;-74
2022/06/10 06:52:08;;;;;;;15.63;5.20;;;21.60;99.90;;;;;;5019950;28;20572;-74
2022/06/10 06:54:37;;;;;;;15.30;5.55;;;21.60;99.90;;;;;;5023537;28;20442;-74
2022/06/10 06:57:05;;;;;;;15.00;4.93;;;21.70;99.90;;;;;;5014327;28;20090;-75
2022/06/10 06:59:34;;;;;;;16.58;5.28;;;21.80;99.90;;;;;;5025332;28;20441;-74
2022/06/10 07:02:00;;;;;;;12.85;5.28;;;21.70;99.90;;;;;;5022128;28;20140;-74
2022/06/10 07:04:26;;;;;;;15.75;4.93;;;21.80;99.90;;;;;;5024162;28;20069;-74
2022/06/10 07:06:53;;;;;;;14.90;5.13;;;21.90;99.90;;;;;;5019323;28;20094;-73
2022/06/10 07:09:20;;;;;;;13.73;4.88;;;22.00;99.90;;;;;;5021039;28;20627;-74
2022/06/10 07:11:48;;;;;;;19.45;5.70;;;22.10;99.90;;;;;;5042448;28;20385;-74
2022/06/10 07:14:14;;;;;;;17.08;5.93;;;22.10;99.90;;;;;;5024876;28;20034;-74
2022/06/10 07:16:41;;;;;;;17.15;5.10;;;22.20;99.90;;;;;;5022377;28;20034;-74
2022/06/10 07:19:08;;;;;;;17.52;6.20;;;22.20;99.90;;;;;;5036767;28;20510;-74
2022/06/10 07:21:35;;;;;;;17.95;5.72;;;22.20;99.90;;;;;;5024817;28;20511;-74
2022/06/10 07:24:01;;;;;;;18.27;6.25;;;22.30;99.90;;;;;;5035140;28;20034;-74
2022/06/10 07:26:27;;;;;;;15.98;6.25;;;22.40;99.90;;;;;;5020464;28;20543;-74
2022/06/10 07:28:53;;;;;;;13.63;5.60;;;22.40;99.90;;;;;;5020943;28;20100;-74
2022/06/10 07:31:20;;;;;;;19.02;6.03;;;22.60;99.90;;;;;;5022113;28;20030;-74
2022/06/10 07:33:46;;;;;;;15.18;5.80;;;22.60;99.90;;;;;;5012829;28;20044;-73
2022/06/10 07:36:12;;;;;;;13.57;5.65;;;22.60;99.90;;;;;;5015503;28;20042;-74
2022/06/10 07:38:40;;;;;;;18.70;5.95;;;22.70;99.90;;;;;;5020041;28;21117;-81
2022/06/10 07:43:53;;;;;;;18.60;6.50;;;22.80;99.90;;;;;;5022008;28;20053;-78
2022/06/10 07:46:22;;;;;;;18.65;6.57;;;22.70;99.90;;;;;;5020053;28;20547;-77
2022/06/10 07:48:49;;;;;;;15.65;5.93;;;22.80;99.90;;;;;;5021515;28;20033;-78
2022/06/10 07:51:16;;;;;;;18.42;5.88;;;22.90;99.90;;;;;;5015913;28;20033;-78
2022/06/10 07:53:43;;;;;;;16.42;6.38;;;23.00;99.90;;;;;;5020801;28;20044;-78
2022/06/10 07:56:13;;;;;;;20.08;6.47;;;23.00;99.90;;;;;;5033470;28;20499;-78
2022/06/10 07:58:39;;;;;;;16.55;5.97;;;22.90;99.90;;;;;;5039899;28;20048;-77
2022/06/10 08:01:06;;;;;;;16.83;6.18;;;22.90;99.90;;;;;;5027256;28;20515;-79
2022/06/10 08:03:32;;;;;;;19.20;6.50;;;22.90;99.90;;;;;;5036547;28;20033;-78
2022/06/10 08:05:59;;;;;;;18.15;7.45;;;23.00;99.90;;;;;;5044703;28;20083;-78
2022/06/10 08:08:27;;;;;;;18.38;6.95;;;23.00;99.90;;;;;;5018233;28;20046;-78
2022/06/10 08:10:55;;;;;;;17.02;6.90;;;22.90;99.90;;;;;;5034720;28;20116;-78
2022/06/10 08:13:21;;;;;;;18.60;7.93;;;23.00;99.90;;;;;;5024493;28;20033;-78
2022/06/10 08:15:48;;;;;;;17.38;7.22;;;23.20;99.90;;;;;;5033409;28;20045;-79
2022/06/10 08:18:17;;;;;;;18.98;7.45;;;23.30;99.90;;;;;;5020950;28;20037;-77
2022/06/10 08:23:31;;;;;;;19.98;7.03;;;23.50;99.90;;;;;;5042520;28;20044;-77
2022/06/10 08:26:03;;;;;;;16.70;6.93;;;23.60;99.90;;;;;;5035250;28;20034;-80
2022/06/10 08:28:32;;;;;;;25.45;7.90;;;23.70;99.90;;;;;;5040998;28;20046;-78
2022/06/10 08:31:00;;;;;;;18.60;7.68;;;23.70;99.90;;;;;;5031405;28;20044;-78
2022/06/10 08:33:26;;;;;;;23.42;7.78;;;23.50;99.90;;;;;;5028564;28;20069;-79
2022/06/10 08:35:52;;;;;;;20.98;6.85;;;23.70;99.90;;;;;;5029228;28;20141;-77
2022/06/10 08:38:19;;;;;;;17.92;7.65;;;23.90;99.90;;;;;;5045971;28;20485;-78
2022/06/10 08:41:05;;;;;;;24.35;7.93;;;24.20;99.90;;;;;;5045138;28;20037;-80
2022/06/10 08:43:47;;;;;;;19.77;6.97;;;24.30;99.90;;;;;;5026243;28;20101;-79
2022/06/10 08:46:17;;;;;;;17.20;7.00;;;24.40;99.90;;;;;;5040325;28;20431;-79
2022/06/10 08:48:56;;;;;;;21.02;7.28;;;24.30;99.90;;;;;;5041395;28;20101;-79
2022/06/10 08:51:41;;;;;;;19.25;6.55;;;24.20;99.90;;;;;;5044976;28;20037;-78
2022/06/10 08:54:24;;;;;;;15.25;7.07;;;24.40;99.90;;;;;;5043697;28;20046;-77
2022/06/10 08:56:53;;;;;;;17.08;6.65;;;24.30;99.90;;;;;;5046489;28;20045;-79
2022/06/10 08:59:37;;;;;;;19.80;6.95;;;24.30;99.90;;;;;;5046102;28;20040;-78
2022/06/10 09:02:18;;;;;;;18.15;7.10;;;24.60;99.90;;;;;;5032903;28;20037;-78
2022/06/10 09:04:57;;;;;;;19.23;7.70;;;25.00;99.90;;;;;;5032894;28;20046;-78
2022/06/10 09:07:47;;;;;;;22.40;6.93;;;24.80;99.90;;;;;;5030288;28;20042;-79
2022/06/10 09:10:28;;;;;;;17.60;7.00;;;24.90;99.90;;;;;;5056610;28;20045;-78
2022/06/10 09:13:29;;;;;;;21.00;8.88;;;25.00;99.90;;;;;;5023880;28;20725;-79
2022/06/10 09:16:18;;;;;;;17.70;8.63;;;24.50;99.90;;;;;;5034510;28;20086;-78
2022/06/10 09:18:50;;;;;;;28.15;8.75;;;25.00;99.90;;;;;;5021825;28;20046;-78
2022/06/10 09:21:34;;;;;;;22.48;7.65;;;25.20;99.90;;;;;;5057399;28;20140;-79
2022/06/10 09:24:08;;;;;;;18.23;7.80;;;25.40;99.90;;;;;;5056950;28;20436;-79
2022/06/10 09:26:42;;;;;;;18.83;7.90;;;25.10;99.90;;;;;;5054434;28;20038;-79
2022/06/10 09:29:12;;;;;;;20.20;7.43;;;25.40;99.90;;;;;;5026192;28;20351;-79
2022/06/10 09:32:13;;;;;;;14.45;6.68;;;25.00;99.90;;;;;;5042235;28;20060;-78
2022/06/10 09:34:54;;;;;;;20.30;7.57;;;25.40;99.90;;;;;;4991840;28;20038;-79
2022/06/10 09:38:06;;;;;;;17.60;7.13;;;25.60;99.90;;;;;;5056921;28;20392;-79
2022/06/10 09:40:44;;;;;;;14.30;7.32;;;25.50;99.90;;;;;;5011933;28;20037;-79
2022/06/10 09:43:16;;;;;;;19.50;7.65;;;25.20;99.90;;;;;;5028987;28;20041;-78
2022/06/10 09:46:01;;;;;;;;;;;24.80;99.90;;;;;;5037890;28;20065;-79
2022/06/10 09:48:57;;;;;;;19.40;7.75;;;24.70;99.90;;;;;;5033610;28;19921;-78
2022/06/10 09:51:42;;;;;;;20.77;7.15;;;25.30;99.90;;;;;;5040352;28;20034;-80
2022/06/10 09:54:52;;;;;;;20.33;6.95;;;25.60;99.90;;;;;;5058207;28;20478;-80
2022/06/10 09:57:30;;;;;;;19.92;7.28;;;25.60;99.90;;;;;;5035991;28;20045;-78
2022/06/10 10:00:05;;;;;;;21.73;7.00;;;25.90;99.90;;;;;;5043876;28;20041;-78
2022/06/10 10:02:46;;;;;;;28.33;8.18;;;25.90;99.90;;;;;;5062178;28;20045;-78
2022/06/10 10:05:18;;;;;;;19.25;8.10;;;25.30;99.90;;;;;;5049274;28;20092;-79
2022/06/10 10:07:47;;;;;;;20.35;6.75;;;25.10;99.90;;;;;;5045934;28;20049;-79
2022/06/10 10:10:20;;;;;;;13.20;6.25;;;25.10;99.90;;;;;;5048372;28;20050;-79
2022/06/10 10:13:37;;;;;;;21.42;7.00;;;25.00;99.90;;;;;;5036086;28;20017;-80
2022/06/10 10:16:21;;;;;;;13.90;6.50;;;25.20;99.90;;;;;;5032696;28;20480;-80
2022/06/10 10:19:26;;;;;;;17.73;6.90;;;25.40;99.90;;;;;;5031596;28;20041;-78
2022/06/10 10:22:11;;;;;;;17.45;7.22;;;25.30;99.90;;;;;;5032770;28;20045;-80
2022/06/10 10:24:41;;;;;;;19.10;7.07;;;25.10;99.90;;;;;;5018346;28;20413;-79
2022/06/10 10:27:18;;;;;;;22.38;8.05;;;24.90;99.90;;;;;;5031994;28;20421;-79
2022/06/10 10:29:49;;;;;;;19.50;7.28;;;24.80;99.90;;;;;;5020410;28;20040;-80
2022/06/10 10:32:30;;;;;;;18.63;8.35;;;25.00;99.90;;;;;;5023514;28;20061;-79
2022/06/10 10:35:04;;;;;;;19.80;7.50;;;25.00;99.90;;;;;;5045210;28;20052;-80
2022/06/10 10:37:34;;;;;;;16.95;6.80;;;25.60;99.90;;;;;;5035250;28;20060;-80
2022/06/10 10:40:18;;;;;;;21.42;7.43;;;25.70;99.90;;;;;;5011395;28;20042;-79
2022/06/10 10:43:04;;;;;;;21.30;7.13;;;25.80;99.90;;;;;;5067473;28;20042;-82
2022/06/10 10:45:36;;;;;;;21.10;7.20;;;25.80;99.90;;;;;;5005801;28;20042;-79
2022/06/10 10:48:25;;;;;;;16.35;7.20;;;25.30;99.90;;;;;;5015808;28;20033;-79
2022/06/10 10:51:00;;;;;;;16.02;7.72;;;25.70;99.90;;;;;;5011040;28;20088;-79
2022/06/10 10:53:49;;;;;;;18.95;6.88;;;25.90;99.90;;;;;;5009530;28;20411;-80
2022/06/10 10:56:18;;;;;;;17.00;6.40;;;26.00;99.90;;;;;;4985322;28;20390;-78
2022/06/10 10:58:51;;;;;;;13.57;6.38;;;26.20;99.90;;;;;;5023993;28;20084;-78
2022/06/10 11:05:16;;;;;;;21.40;6.90;;;26.50;99.90;;;;;;5011849;28;20052;-80
2022/06/10 11:07:43;;;;;;;17.27;6.80;;;26.10;99.90;;;;;;5040828;28;20042;-78
2022/06/10 11:10:24;;;;;;;13.45;5.38;;;26.20;99.90;;;;;;5013773;28;20037;-77
2022/06/10 11:12:51;;;;;;;12.70;5.47;;;26.50;99.90;;;;;;5045533;28;20577;-78
2022/06/10 11:15:27;;;;;;;20.88;5.55;;;25.60;99.90;;;;;;5015301;28;20301;-79
2022/06/10 11:17:55;;;;;;;14.00;5.13;;;26.10;99.90;;;;;;5031296;28;20052;-78
2022/06/10 11:20:30;;;;;;;14.07;4.97;;;26.50;99.90;;;;;;5033911;28;20065;-78
2022/06/10 11:23:26;;;;;;;14.23;4.47;;;26.30;99.90;;;;;;5056126;28;20090;-79
2022/06/10 11:26:14;;;;;;;19.15;5.03;;;27.00;99.90;;;;;;5052243;28;20409;-79
2022/06/10 11:28:43;;;;;;;16.98;3.72;;;26.30;99.90;;;;;;5022411;28;20068;-77
2022/06/10 11:31:31;;;;;;;13.05;3.90;;;26.70;99.90;;;;;;5025374;28;20084;-78
2022/06/10 11:34:00;;;;;;;14.35;4.00;;;26.70;99.90;;;;;;5021607;28;20033;-78
2022/06/10 11:36:36;;;;;;;12.45;3.38;;;26.90;99.90;;;;;;5033928;28;20049;-78
2022/06/10 11:39:25;;;;;;;13.43;3.47;;;26.70;99.90;;;;;;5019720;28;20081;-78
2022/06/10 11:42:27;;;;;;;11.65;3.67;;;26.40;99.90;;;;;;5043324;28;20042;-83
2022/06/10 11:45:07;;;;;;;15.82;4.03;;;26.60;99.90;;;;;;5017136;28;20064;-77
2022/06/10 11:47:48;;;;;;;11.60;3.75;;;27.00;99.90;;;;;;5019748;28;20037;-80
2022/06/10 11:50:23;;;;;;;13.63;3.40;;;26.70;99.90;;;;;;5007418;28;20131;-79
2022/06/10 11:53:16;;;;;;;8.15;3.25;;;27.40;99.90;;;;;;5037830;28;20354;-78
2022/06/10 11:55:44;;;;;;;13.98;3.92;;;27.60;99.90;;;;;;5014169;28;20417;-79
2022/06/10 12:01:26;;;;;;;14.23;3.45;;;26.90;99.90;;;;;;5019136;28;20463;-80
2022/06/10 12:04:00;;;;;;;13.23;3.58;;;27.40;99.90;;;;;;5037537;28;20046;-78
2022/06/10 12:06:36;;;;;;;14.73;3.42;;;27.50;99.90;;;;;;5025213;28;20040;-79
2022/06/10 12:09:21;;;;;;;10.40;3.25;;;27.90;99.90;;;;;;5037788;28;20794;-78
2022/06/10 12:12:03;;;;;;;12.00;3.63;;;27.30;99.90;;;;;;5033899;28;20494;-78
2022/06/10 12:14:44;;;;;;;10.82;3.50;;;27.10;99.90;;;;;;5045696;28;20030;-79
2022/06/10 12:17:35;;;;;;;11.18;3.47;;;26.90;99.90;;;;;;5032820;28;20453;-79
2022/06/10 12:20:41;;;;;;;10.43;2.95;;;27.40;99.90;;;;;;5028850;28;20473;-79
2022/06/10 12:23:24;;;;;;;13.70;3.90;;;27.60;99.90;;;;;;5033773;28;20030;-80
2022/06/10 12:26:11;;;;;;;6.78;2.83;;;27.20;99.90;;;;;;5044905;28;20037;-80
2022/06/10 12:28:40;;;;;;;10.63;3.13;;;27.20;99.90;;;;;;5048947;28;20041;-80
2022/06/10 12:31:17;;;;;;;10.05;3.58;;;26.80;99.90;;;;;;5029576;28;20113;-79
2022/06/10 12:33:59;;;;;;;7.72;2.55;;;27.70;99.90;;;;;;5034539;28;20041;-80
2022/06/10 12:36:29;;;;;;;;;;;27.90;99.90;;;;;;5029269;28;20045;-79
2022/06/10 12:38:57;;;;;;;12.10;3.40;;;28.10;99.90;;;;;;5029567;28;19926;-79
2022/06/10 12:41:35;;;;;;;10.57;3.17;;;28.00;99.90;;;;;;5062567;28;20057;-79
2022/06/10 12:44:08;;;;;;;11.93;3.10;;;28.80;99.90;;;;;;5027958;28;20099;-79
2022/06/10 12:47:01;;;;;;;10.00;3.15;;;28.40;99.90;;;;;;5031855;28;20041;-80
2022/06/10 12:49:30;;;;;;;8.43;2.80;;;27.90;99.90;;;;;;5035019;28;20102;-78
2022/06/10 12:52:24;;;;;;;11.35;2.90;;;27.10;99.90;;;;;;5056109;28;20130;-78
2022/06/10 12:55:26;;;;;;;7.85;2.35;;;27.50;99.90;;;;;;5048227;28;20029;-79
2022/06/10 12:57:53;;;;;;;9.75;2.50;;;27.50;99.90;;;;;;5029750;28;20068;-79
2022/06/10 13:00:22;;;;;;;8.40;2.63;;;27.80;99.90;;;;;;5032403;28;20041;-79
2022/06/10 13:02:51;;;;;;;8.82;2.65;;;27.50;99.90;;;;;;5048623;28;20046;-80
2022/06/10 13:05:27;;;;;;;9.43;2.67;;;28.40;99.90;;;;;;5034210;28;20126;-79
2022/06/10 13:07:55;;;;;;;7.10;2.40;;;28.00;99.90;;;;;;5032327;28;20052;-79
2022/06/10 13:10:35;;;;;;;13.02;2.67;;;27.90;99.90;;;;;;5033253;28;20049;-79
2022/06/10 13:13:12;;;;;;;11.45;2.75;;;27.50;99.90;;;;;;5032365;28;20046;-78
2022/06/10 13:15:42;;;;;;;8.40;2.50;;;27.20;99.90;;;;;;5056655;28;20368;-78
2022/06/10 13:18:18;;;;;;;10.50;2.72;;;27.40;99.90;;;;;;5043129;28;20927;-77
2022/06/10 13:20:49;;;;;;;8.55;2.67;;;28.00;99.90;;;;;;5042093;28;20048;-78
2022/06/10 13:23:23;;;;;;;6.20;2.10;;;28.70;99.90;;;;;;5027943;28;20041;-78
2022/06/10 13:26:16;;;;;;;7.13;2.38;;;27.90;99.90;;;;;;5043347;28;20539;-79
2022/06/10 13:28:44;;;;;;;9.20;2.30;;;28.60;99.90;;;;;;5035353;28;20033;-78
2022/06/10 13:31:28;;;;;;;8.60;2.70;;;27.90;99.90;;;;;;5060601;28;20116;-79